sensor_id;sensor_type;location;lat;lon;timestamp;P1;durP1;ratioP1;P2;durP2;ratioP2
60239;SDS011;46102;39.012;-7.064;2024-03-07T00:00:27;4.78;;;2.60;;
60239;SDS011;46102;39.012;-7.064;2024-03-07T00:02:28;3.80;;;2.33;;
60239;SDS011;46102;39.012;-7.064;2024-03-07T00:04:29;6.03;;;2.30;;
60239;SDS011;46102;39.012;-7.064;2024-03-07T00:06:29;3.13;;;2.10;;
60239;SDS011;46102;39.012;-7.064;2024-03-07T00:08:30;4.20;;;2.10;;
60239;SDS011;46102;39.012;-7.064;2024-03-07T00:10:31;3.30;;;3.00;;
60239;SDS011;46102;39.012;-7.064;2024-03-07T00:12:33;3.38;;;2.28;;
60239;SDS011;46102;39.012;-7.064;2024-03-07T00:14:35;5.37;;;2.90;;
60239;SDS011;46102;39.012;-7.064;2024-03-07T00:16:36;3.58;;;2.60;;
60239;SDS011;46102;39.012;-7.064;2024-03-07T00:18:38;5.13;;;2.58;;
60239;SDS011;46102;39.012;-7.064;2024-03-07T00:20:39;2.67;;;2.47;;
60239;SDS011;46102;39.012;-7.064;2024-03-07T00:22:41;3.00;;;2.67;;
60239;SDS011;46102;39.012;-7.064;2024-03-07T00:24:42;6.80;;;2.00;;
60239;SDS011;46102;39.012;-7.064;2024-03-07T00:26:43;5.63;;;3.47;;
60239;SDS011;46102;39.012;-7.064;2024-03-07T00:28:44;4.15;;;2.95;;
60239;SDS011;46102;39.012;-7.064;2024-03-07T00:30:44;5.03;;;2.80;;
60239;SDS011;46102;39.012;-7.064;2024-03-07T00:32:46;5.88;;;3.47;;
60239;SDS011;46102;39.012;-7.064;2024-03-07T00:34:48;5.88;;;3.25;;
60239;SDS011;46102;39.012;-7.064;2024-03-07T00:36:49;5.78;;;2.42;;
60239;SDS011;46102;39.012;-7.064;2024-03-07T00:38:49;5.47;;;2.90;;
60239;SDS011;46102;39.012;-7.064;2024-03-07T00:40:50;6.13;;;2.20;;
60239;SDS011;46102;39.012;-7.064;2024-03-07T00:42:51;3.75;;;2.25;;
60239;SDS011;46102;39.012;-7.064;2024-03-07T00:44:51;3.22;;;2.05;;
60239;SDS011;46102;39.012;-7.064;2024-03-07T00:46:52;2.75;;;2.08;;
60239;SDS011;46102;39.012;-7.064;2024-03-07T00:48:53;4.32;;;2.88;;
60239;SDS011;46102;39.012;-7.064;2024-03-07T00:50:54;5.53;;;3.78;;
60239;SDS011;46102;39.012;-7.064;2024-03-07T00:52:54;3.67;;;2.15;;
60239;SDS011;46102;39.012;-7.064;2024-03-07T00:54:55;4.65;;;2.40;;
60239;SDS011;46102;39.012;-7.064;2024-03-07T00:56:56;2.88;;;2.50;;
60239;SDS011;46102;39.012;-7.064;2024-03-07T00:58:57;4.68;;;2.70;;
60239;SDS011;46102;39.012;-7.064;2024-03-07T01:00:57;3.42;;;2.55;;
60239;SDS011;46102;39.012;-7.064;2024-03-07T01:02:58;6.18;;;2.78;;
60239;SDS011;46102;39.012;-7.064;2024-03-07T01:04:59;4.60;;;2.53;;
60239;SDS011;46102;39.012;-7.064;2024-03-07T01:07:00;3.67;;;2.42;;
60239;SDS011;46102;39.012;-7.064;2024-03-07T01:09:01;3.67;;;2.53;;
60239;SDS011;46102;39.012;-7.064;2024-03-07T01:11:03;3.85;;;2.53;;
60239;SDS011;46102;39.012;-7.064;2024-03-07T01:13:10;3.28;;;2.10;;
60239;SDS011;46102;39.012;-7.064;2024-03-07T01:15:19;3.17;;;2.17;;
60239;SDS011;46102;39.012;-7.064;2024-03-07T01:17:19;6.20;;;2.22;;
60239;SDS011;46102;39.012;-7.064;2024-03-07T01:19:20;2.40;;;2.20;;
60239;SDS011;46102;39.012;-7.064;2024-03-07T01:21:21;10.30;;;2.95;;
60239;SDS011;46102;39.012;-7.064;2024-03-07T01:23:22;3.08;;;2.50;;
60239;SDS011;46102;39.012;-7.064;2024-03-07T01:25:22;4.38;;;2.53;;
60239;SDS011;46102;39.012;-7.064;2024-03-07T01:27:23;2.92;;;2.22;;
60239;SDS011;46102;39.012;-7.064;2024-03-07T01:29:24;8.57;;;4.75;;
60239;SDS011;46102;39.012;-7.064;2024-03-07T01:31:25;6.75;;;2.72;;
60239;SDS011;46102;39.012;-7.064;2024-03-07T01:33:26;6.47;;;2.30;;
60239;SDS011;46102;39.012;-7.064;2024-03-07T01:35:27;3.38;;;2.45;;
60239;SDS011;46102;39.012;-7.064;2024-03-07T01:37:28;6.55;;;2.63;;
60239;SDS011;46102;39.012;-7.064;2024-03-07T01:39:29;5.22;;;3.03;;
60239;SDS011;46102;39.012;-7.064;2024-03-07T01:41:29;10.07;;;3.17;;
60239;SDS011;46102;39.012;-7.064;2024-03-07T01:43:30;3.83;;;2.33;;
60239;SDS011;46102;39.012;-7.064;2024-03-07T01:45:31;4.22;;;1.75;;
60239;SDS011;46102;39.012;-7.064;2024-03-07T01:47:32;5.50;;;2.20;;
60239;SDS011;46102;39.012;-7.064;2024-03-07T01:49:33;7.63;;;2.92;;
60239;SDS011;46102;39.012;-7.064;2024-03-07T01:51:34;4.88;;;2.28;;
60239;SDS011;46102;39.012;-7.064;2024-03-07T01:53:36;2.80;;;2.15;;
60239;SDS011;46102;39.012;-7.064;2024-03-07T01:55:37;7.85;;;3.03;;
60239;SDS011;46102;39.012;-7.064;2024-03-07T01:57:38;9.68;;;2.65;;
60239;SDS011;46102;39.012;-7.064;2024-03-07T01:59:39;5.22;;;2.78;;
60239;SDS011;46102;39.012;-7.064;2024-03-07T02:01:40;5.70;;;2.83;;
60239;SDS011;46102;39.012;-7.064;2024-03-07T02:03:42;3.92;;;2.55;;
60239;SDS011;46102;39.012;-7.064;2024-03-07T02:05:43;8.25;;;2.65;;
60239;SDS011;46102;39.012;-7.064;2024-03-07T02:07:45;5.32;;;2.42;;
60239;SDS011;46102;39.012;-7.064;2024-03-07T02:09:45;3.85;;;2.05;;
60239;SDS011;46102;39.012;-7.064;2024-03-07T02:11:49;3.63;;;2.03;;
60239;SDS011;46102;39.012;-7.064;2024-03-07T02:13:50;7.75;;;2.28;;
60239;SDS011;46102;39.012;-7.064;2024-03-07T02:15:51;11.93;;;3.10;;
60239;SDS011;46102;39.012;-7.064;2024-03-07T02:17:53;3.20;;;2.40;;
60239;SDS011;46102;39.012;-7.064;2024-03-07T02:19:53;11.55;;;3.60;;
60239;SDS011;46102;39.012;-7.064;2024-03-07T02:21:55;3.63;;;2.50;;
60239;SDS011;46102;39.012;-7.064;2024-03-07T02:23:55;4.80;;;2.05;;
60239;SDS011;46102;39.012;-7.064;2024-03-07T02:25:56;3.72;;;1.83;;
60239;SDS011;46102;39.012;-7.064;2024-03-07T02:27:57;2.92;;;2.28;;
60239;SDS011;46102;39.012;-7.064;2024-03-07T02:29:58;9.52;;;3.10;;
60239;SDS011;46102;39.012;-7.064;2024-03-07T02:31:58;6.38;;;3.05;;
60239;SDS011;46102;39.012;-7.064;2024-03-07T02:33:59;4.30;;;3.22;;
60239;SDS011;46102;39.012;-7.064;2024-03-07T02:36:00;4.20;;;2.28;;
60239;SDS011;46102;39.012;-7.064;2024-03-07T02:38:02;3.65;;;2.55;;
60239;SDS011;46102;39.012;-7.064;2024-03-07T02:40:03;7.57;;;3.85;;
60239;SDS011;46102;39.012;-7.064;2024-03-07T02:42:05;7.20;;;3.08;;
60239;SDS011;46102;39.012;-7.064;2024-03-07T02:44:06;6.32;;;3.30;;
60239;SDS011;46102;39.012;-7.064;2024-03-07T02:46:07;5.60;;;3.17;;
60239;SDS011;46102;39.012;-7.064;2024-03-07T02:48:08;5.30;;;3.42;;
60239;SDS011;46102;39.012;-7.064;2024-03-07T02:50:10;6.28;;;3.63;;
60239;SDS011;46102;39.012;-7.064;2024-03-07T02:52:11;6.43;;;3.70;;
60239;SDS011;46102;39.012;-7.064;2024-03-07T02:54:12;8.65;;;2.45;;
60239;SDS011;46102;39.012;-7.064;2024-03-07T02:56:13;2.83;;;2.28;;
60239;SDS011;46102;39.012;-7.064;2024-03-07T02:58:14;5.68;;;2.10;;
60239;SDS011;46102;39.012;-7.064;2024-03-07T03:00:16;8.63;;;2.45;;
60239;SDS011;46102;39.012;-7.064;2024-03-07T03:02:20;3.50;;;1.70;;
60239;SDS011;46102;39.012;-7.064;2024-03-07T03:04:21;6.13;;;2.00;;
60239;SDS011;46102;39.012;-7.064;2024-03-07T03:06:22;2.97;;;1.63;;
60239;SDS011;46102;39.012;-7.064;2024-03-07T03:08:22;2.58;;;2.00;;
60239;SDS011;46102;39.012;-7.064;2024-03-07T03:10:24;3.85;;;1.90;;
60239;SDS011;46102;39.012;-7.064;2024-03-07T03:12:26;3.72;;;2.17;;
60239;SDS011;46102;39.012;-7.064;2024-03-07T03:14:27;6.60;;;2.13;;
60239;SDS011;46102;39.012;-7.064;2024-03-07T03:16:28;6.10;;;2.10;;
60239;SDS011;46102;39.012;-7.064;2024-03-07T03:18:28;4.97;;;2.00;;
60239;SDS011;46102;39.012;-7.064;2024-03-07T03:20:29;4.22;;;2.38;;
60239;SDS011;46102;39.012;-7.064;2024-03-07T03:22:39;5.78;;;1.98;;
60239;SDS011;46102;39.012;-7.064;2024-03-07T03:24:39;5.72;;;2.15;;
60239;SDS011;46102;39.012;-7.064;2024-03-07T03:26:41;3.25;;;1.60;;
60239;SDS011;46102;39.012;-7.064;2024-03-07T03:28:42;4.72;;;2.13;;
60239;SDS011;46102;39.012;-7.064;2024-03-07T03:30:43;5.93;;;1.80;;
60239;SDS011;46102;39.012;-7.064;2024-03-07T03:32:45;4.95;;;2.00;;
60239;SDS011;46102;39.012;-7.064;2024-03-07T03:34:47;4.05;;;1.70;;
60239;SDS011;46102;39.012;-7.064;2024-03-07T03:36:47;6.93;;;1.80;;
60239;SDS011;46102;39.012;-7.064;2024-03-07T03:38:49;5.40;;;1.92;;
60239;SDS011;46102;39.012;-7.064;2024-03-07T03:40:50;4.45;;;1.70;;
60239;SDS011;46102;39.012;-7.064;2024-03-07T03:42:50;11.52;;;3.53;;
60239;SDS011;46102;39.012;-7.064;2024-03-07T03:44:52;3.45;;;1.60;;
60239;SDS011;46102;39.012;-7.064;2024-03-07T03:46:53;4.80;;;1.83;;
60239;SDS011;46102;39.012;-7.064;2024-03-07T03:48:54;4.18;;;1.95;;
60239;SDS011;46102;39.012;-7.064;2024-03-07T03:50:54;4.38;;;2.45;;
60239;SDS011;46102;39.012;-7.064;2024-03-07T03:52:55;6.22;;;2.00;;
60239;SDS011;46102;39.012;-7.064;2024-03-07T03:54:57;4.25;;;1.42;;
60239;SDS011;46102;39.012;-7.064;2024-03-07T03:56:59;3.47;;;1.67;;
60239;SDS011;46102;39.012;-7.064;2024-03-07T03:59:00;2.65;;;1.83;;
60239;SDS011;46102;39.012;-7.064;2024-03-07T04:01:00;4.78;;;1.65;;
60239;SDS011;46102;39.012;-7.064;2024-03-07T04:03:01;3.38;;;2.03;;
60239;SDS011;46102;39.012;-7.064;2024-03-07T04:05:02;6.57;;;2.10;;
60239;SDS011;46102;39.012;-7.064;2024-03-07T04:07:04;3.20;;;1.98;;
60239;SDS011;46102;39.012;-7.064;2024-03-07T04:09:04;2.70;;;1.95;;
60239;SDS011;46102;39.012;-7.064;2024-03-07T04:11:05;4.50;;;1.80;;
60239;SDS011;46102;39.012;-7.064;2024-03-07T04:13:09;5.97;;;1.85;;
60239;SDS011;46102;39.012;-7.064;2024-03-07T04:15:12;5.88;;;1.80;;
60239;SDS011;46102;39.012;-7.064;2024-03-07T04:17:16;2.20;;;2.00;;
60239;SDS011;46102;39.012;-7.064;2024-03-07T04:19:17;9.48;;;2.60;;
60239;SDS011;46102;39.012;-7.064;2024-03-07T04:21:20;3.22;;;2.22;;
60239;SDS011;46102;39.012;-7.064;2024-03-07T04:23:21;5.05;;;2.10;;
60239;SDS011;46102;39.012;-7.064;2024-03-07T04:25:22;3.20;;;2.22;;
60239;SDS011;46102;39.012;-7.064;2024-03-07T04:27:22;1.55;;;1.40;;
60239;SDS011;46102;39.012;-7.064;2024-03-07T04:29:23;3.33;;;2.15;;
60239;SDS011;46102;39.012;-7.064;2024-03-07T04:31:24;8.27;;;2.20;;
60239;SDS011;46102;39.012;-7.064;2024-03-07T04:33:25;8.13;;;2.00;;
60239;SDS011;46102;39.012;-7.064;2024-03-07T04:35:26;4.38;;;1.92;;
60239;SDS011;46102;39.012;-7.064;2024-03-07T04:37:27;2.78;;;1.95;;
60239;SDS011;46102;39.012;-7.064;2024-03-07T04:39:28;6.97;;;2.03;;
60239;SDS011;46102;39.012;-7.064;2024-03-07T04:41:35;2.35;;;1.70;;
60239;SDS011;46102;39.012;-7.064;2024-03-07T04:43:36;4.75;;;2.20;;
60239;SDS011;46102;39.012;-7.064;2024-03-07T04:45:37;8.15;;;1.98;;
60239;SDS011;46102;39.012;-7.064;2024-03-07T04:47:39;3.47;;;2.13;;
60239;SDS011;46102;39.012;-7.064;2024-03-07T04:49:42;2.53;;;1.58;;
60239;SDS011;46102;39.012;-7.064;2024-03-07T04:51:43;3.50;;;1.75;;
60239;SDS011;46102;39.012;-7.064;2024-03-07T04:53:44;9.73;;;2.35;;
60239;SDS011;46102;39.012;-7.064;2024-03-07T04:55:45;6.85;;;2.88;;
60239;SDS011;46102;39.012;-7.064;2024-03-07T04:57:46;6.30;;;1.95;;
60239;SDS011;46102;39.012;-7.064;2024-03-07T04:59:47;5.97;;;1.85;;
60239;SDS011;46102;39.012;-7.064;2024-03-07T05:01:48;6.05;;;2.10;;
60239;SDS011;46102;39.012;-7.064;2024-03-07T05:03:50;4.35;;;2.17;;
60239;SDS011;46102;39.012;-7.064;2024-03-07T05:05:52;8.48;;;2.45;;
60239;SDS011;46102;39.012;-7.064;2024-03-07T05:07:53;9.02;;;2.28;;
60239;SDS011;46102;39.012;-7.064;2024-03-07T05:09:56;7.22;;;1.98;;
60239;SDS011;46102;39.012;-7.064;2024-03-07T05:11:56;5.30;;;2.47;;
60239;SDS011;46102;39.012;-7.064;2024-03-07T05:13:58;4.90;;;3.08;;
60239;SDS011;46102;39.012;-7.064;2024-03-07T05:15:59;2.65;;;2.20;;
60239;SDS011;46102;39.012;-7.064;2024-03-07T05:18:00;5.72;;;2.00;;
60239;SDS011;46102;39.012;-7.064;2024-03-07T05:20:01;2.42;;;1.98;;
60239;SDS011;46102;39.012;-7.064;2024-03-07T05:22:03;3.20;;;2.00;;
60239;SDS011;46102;39.012;-7.064;2024-03-07T05:24:07;5.97;;;1.95;;
60239;SDS011;46102;39.012;-7.064;2024-03-07T05:26:10;6.00;;;2.10;;
60239;SDS011;46102;39.012;-7.064;2024-03-07T05:28:11;4.20;;;1.90;;
60239;SDS011;46102;39.012;-7.064;2024-03-07T05:30:12;2.17;;;1.50;;
60239;SDS011;46102;39.012;-7.064;2024-03-07T05:32:25;6.25;;;2.30;;
60239;SDS011;46102;39.012;-7.064;2024-03-07T05:34:27;5.93;;;1.40;;
60239;SDS011;46102;39.012;-7.064;2024-03-07T05:36:28;2.30;;;1.17;;
60239;SDS011;46102;39.012;-7.064;2024-03-07T05:38:29;3.83;;;1.13;;
60239;SDS011;46102;39.012;-7.064;2024-03-07T05:40:30;3.90;;;1.70;;
60239;SDS011;46102;39.012;-7.064;2024-03-07T05:42:30;2.72;;;1.90;;
60239;SDS011;46102;39.012;-7.064;2024-03-07T05:44:32;1.77;;;1.67;;
60239;SDS011;46102;39.012;-7.064;2024-03-07T05:46:33;4.90;;;1.33;;
60239;SDS011;46102;39.012;-7.064;2024-03-07T05:48:35;3.08;;;1.33;;
60239;SDS011;46102;39.012;-7.064;2024-03-07T05:50:36;2.33;;;1.35;;
60239;SDS011;46102;39.012;-7.064;2024-03-07T05:52:37;2.45;;;1.52;;
60239;SDS011;46102;39.012;-7.064;2024-03-07T05:54:37;3.10;;;1.23;;
60239;SDS011;46102;39.012;-7.064;2024-03-07T05:56:39;3.03;;;1.38;;
60239;SDS011;46102;39.012;-7.064;2024-03-07T05:58:40;3.00;;;1.30;;
60239;SDS011;46102;39.012;-7.064;2024-03-07T06:00:43;3.42;;;1.35;;
60239;SDS011;46102;39.012;-7.064;2024-03-07T06:02:46;4.57;;;1.40;;
60239;SDS011;46102;39.012;-7.064;2024-03-07T06:04:47;3.13;;;1.38;;
60239;SDS011;46102;39.012;-7.064;2024-03-07T06:06:48;1.70;;;1.15;;
60239;SDS011;46102;39.012;-7.064;2024-03-07T06:08:49;2.55;;;1.73;;
60239;SDS011;46102;39.012;-7.064;2024-03-07T06:10:49;5.30;;;1.67;;
60239;SDS011;46102;39.012;-7.064;2024-03-07T06:12:51;1.40;;;1.23;;
60239;SDS011;46102;39.012;-7.064;2024-03-07T06:14:52;1.60;;;1.52;;
60239;SDS011;46102;39.012;-7.064;2024-03-07T06:16:54;2.15;;;1.10;;
60239;SDS011;46102;39.012;-7.064;2024-03-07T06:18:55;1.45;;;1.20;;
60239;SDS011;46102;39.012;-7.064;2024-03-07T06:20:56;3.33;;;1.67;;
60239;SDS011;46102;39.012;-7.064;2024-03-07T06:22:56;1.70;;;1.13;;
60239;SDS011;46102;39.012;-7.064;2024-03-07T06:24:57;2.80;;;1.15;;
60239;SDS011;46102;39.012;-7.064;2024-03-07T06:27:04;2.00;;;1.20;;
60239;SDS011;46102;39.012;-7.064;2024-03-07T06:29:16;5.50;;;1.58;;
60239;SDS011;46102;39.012;-7.064;2024-03-07T06:31:17;4.30;;;1.38;;
60239;SDS011;46102;39.012;-7.064;2024-03-07T06:33:20;5.93;;;1.10;;
60239;SDS011;46102;39.012;-7.064;2024-03-07T06:35:21;1.25;;;1.10;;
60239;SDS011;46102;39.012;-7.064;2024-03-07T06:37:22;7.07;;;1.20;;
60239;SDS011;46102;39.012;-7.064;2024-03-07T06:39:23;7.15;;;1.67;;
60239;SDS011;46102;39.012;-7.064;2024-03-07T06:41:25;2.92;;;1.25;;
60239;SDS011;46102;39.012;-7.064;2024-03-07T06:43:26;4.70;;;1.48;;
60239;SDS011;46102;39.012;-7.064;2024-03-07T06:45:26;2.45;;;0.90;;
60239;SDS011;46102;39.012;-7.064;2024-03-07T06:47:27;2.13;;;0.93;;
60239;SDS011;46102;39.012;-7.064;2024-03-07T06:49:28;3.83;;;1.23;;
60239;SDS011;46102;39.012;-7.064;2024-03-07T06:51:29;4.40;;;1.73;;
60239;SDS011;46102;39.012;-7.064;2024-03-07T06:53:29;8.18;;;1.45;;
60239;SDS011;46102;39.012;-7.064;2024-03-07T06:55:30;3.20;;;1.85;;
60239;SDS011;46102;39.012;-7.064;2024-03-07T06:57:33;5.10;;;1.42;;
60239;SDS011;46102;39.012;-7.064;2024-03-07T06:59:34;5.40;;;1.30;;
60239;SDS011;46102;39.012;-7.064;2024-03-07T07:01:36;2.15;;;1.08;;
60239;SDS011;46102;39.012;-7.064;2024-03-07T07:03:37;1.85;;;1.20;;
60239;SDS011;46102;39.012;-7.064;2024-03-07T07:05:39;4.30;;;0.80;;
60239;SDS011;46102;39.012;-7.064;2024-03-07T07:07:41;3.22;;;0.82;;
60239;SDS011;46102;39.012;-7.064;2024-03-07T07:09:42;3.78;;;1.30;;
60239;SDS011;46102;39.012;-7.064;2024-03-07T07:11:42;2.58;;;1.00;;
60239;SDS011;46102;39.012;-7.064;2024-03-07T07:13:45;5.35;;;0.80;;
60239;SDS011;46102;39.012;-7.064;2024-03-07T07:15:47;7.82;;;1.42;;
60239;SDS011;46102;39.012;-7.064;2024-03-07T07:17:49;5.65;;;1.45;;
60239;SDS011;46102;39.012;-7.064;2024-03-07T07:19:50;1.48;;;1.10;;
60239;SDS011;46102;39.012;-7.064;2024-03-07T07:21:52;3.35;;;1.13;;
60239;SDS011;46102;39.012;-7.064;2024-03-07T07:23:54;14.18;;;1.48;;
60239;SDS011;46102;39.012;-7.064;2024-03-07T07:25:55;5.20;;;1.20;;
60239;SDS011;46102;39.012;-7.064;2024-03-07T07:27:55;2.67;;;1.45;;
60239;SDS011;46102;39.012;-7.064;2024-03-07T07:29:56;2.00;;;1.27;;
60239;SDS011;46102;39.012;-7.064;2024-03-07T07:31:57;1.45;;;1.10;;
60239;SDS011;46102;39.012;-7.064;2024-03-07T07:33:58;2.17;;;0.90;;
60239;SDS011;46102;39.012;-7.064;2024-03-07T07:35:59;2.15;;;0.90;;
60239;SDS011;46102;39.012;-7.064;2024-03-07T07:38:00;2.80;;;0.80;;
60239;SDS011;46102;39.012;-7.064;2024-03-07T07:40:01;1.08;;;0.70;;
60239;SDS011;46102;39.012;-7.064;2024-03-07T07:42:02;0.30;;;0.30;;
60239;SDS011;46102;39.012;-7.064;2024-03-07T07:44:03;2.45;;;1.05;;
60239;SDS011;46102;39.012;-7.064;2024-03-07T07:46:04;1.45;;;0.60;;
60239;SDS011;46102;39.012;-7.064;2024-03-07T07:48:05;3.92;;;1.50;;
60239;SDS011;46102;39.012;-7.064;2024-03-07T07:50:12;0.90;;;0.50;;
60239;SDS011;46102;39.012;-7.064;2024-03-07T07:52:14;0.63;;;0.57;;
60239;SDS011;46102;39.012;-7.064;2024-03-07T07:54:16;0.60;;;0.60;;
60239;SDS011;46102;39.012;-7.064;2024-03-07T07:56:18;0.60;;;0.60;;
60239;SDS011;46102;39.012;-7.064;2024-03-07T07:58:18;0.93;;;0.80;;
60239;SDS011;46102;39.012;-7.064;2024-03-07T08:00:20;0.43;;;0.43;;
60239;SDS011;46102;39.012;-7.064;2024-03-07T08:02:23;1.85;;;0.82;;
60239;SDS011;46102;39.012;-7.064;2024-03-07T08:04:23;1.17;;;0.50;;
60239;SDS011;46102;39.012;-7.064;2024-03-07T08:06:24;2.20;;;0.57;;
60239;SDS011;46102;39.012;-7.064;2024-03-07T08:08:25;1.15;;;0.28;;
60239;SDS011;46102;39.012;-7.064;2024-03-07T08:10:27;0.40;;;0.40;;
60239;SDS011;46102;39.012;-7.064;2024-03-07T08:12:29;0.90;;;0.70;;
60239;SDS011;46102;39.012;-7.064;2024-03-07T08:14:31;0.65;;;0.65;;
60239;SDS011;46102;39.012;-7.064;2024-03-07T08:16:31;0.80;;;0.70;;
60239;SDS011;46102;39.012;-7.064;2024-03-07T08:18:32;3.67;;;0.80;;
60239;SDS011;46102;39.012;-7.064;2024-03-07T08:20:33;0.80;;;0.75;;
60239;SDS011;46102;39.012;-7.064;2024-03-07T08:22:36;1.83;;;1.33;;
60239;SDS011;46102;39.012;-7.064;2024-03-07T08:24:37;1.77;;;1.67;;
60239;SDS011;46102;39.012;-7.064;2024-03-07T08:26:38;2.17;;;1.85;;
60239;SDS011;46102;39.012;-7.064;2024-03-07T08:28:44;4.00;;;3.60;;
60239;SDS011;46102;39.012;-7.064;2024-03-07T08:30:45;3.30;;;3.10;;
60239;SDS011;46102;39.012;-7.064;2024-03-07T08:32:47;4.93;;;2.60;;
60239;SDS011;46102;39.012;-7.064;2024-03-07T08:34:49;2.45;;;2.10;;
60239;SDS011;46102;39.012;-7.064;2024-03-07T08:36:50;2.35;;;1.52;;
60239;SDS011;46102;39.012;-7.064;2024-03-07T08:38:50;1.60;;;1.50;;
60239;SDS011;46102;39.012;-7.064;2024-03-07T08:40:52;1.80;;;1.70;;
60239;SDS011;46102;39.012;-7.064;2024-03-07T08:42:53;2.97;;;2.03;;
60239;SDS011;46102;39.012;-7.064;2024-03-07T08:44:54;3.00;;;2.80;;
60239;SDS011;46102;39.012;-7.064;2024-03-07T08:46:55;5.07;;;2.60;;
60239;SDS011;46102;39.012;-7.064;2024-03-07T08:48:56;3.85;;;2.67;;
60239;SDS011;46102;39.012;-7.064;2024-03-07T08:50:56;5.85;;;3.45;;
60239;SDS011;46102;39.012;-7.064;2024-03-07T08:52:57;1.95;;;1.70;;
60239;SDS011;46102;39.012;-7.064;2024-03-07T08:54:58;3.33;;;1.58;;
60239;SDS011;46102;39.012;-7.064;2024-03-07T08:56:59;1.30;;;1.20;;
60239;SDS011;46102;39.012;-7.064;2024-03-07T08:58:59;3.13;;;1.20;;
60239;SDS011;46102;39.012;-7.064;2024-03-07T09:01:00;2.38;;;1.13;;
60239;SDS011;46102;39.012;-7.064;2024-03-07T09:03:01;2.92;;;0.93;;
60239;SDS011;46102;39.012;-7.064;2024-03-07T09:05:04;0.95;;;0.45;;
60239;SDS011;46102;39.012;-7.064;2024-03-07T09:07:06;2.03;;;0.65;;
60239;SDS011;46102;39.012;-7.064;2024-03-07T09:09:09;0.75;;;0.65;;
60239;SDS011;46102;39.012;-7.064;2024-03-07T09:11:10;1.60;;;1.10;;
60239;SDS011;46102;39.012;-7.064;2024-03-07T09:13:11;0.93;;;0.60;;
60239;SDS011;46102;39.012;-7.064;2024-03-07T09:15:11;2.05;;;0.93;;
60239;SDS011;46102;39.012;-7.064;2024-03-07T09:17:13;1.23;;;0.55;;
60239;SDS011;46102;39.012;-7.064;2024-03-07T09:19:14;5.35;;;1.13;;
60239;SDS011;46102;39.012;-7.064;2024-03-07T09:21:20;1.10;;;1.00;;
60239;SDS011;46102;39.012;-7.064;2024-03-07T09:23:20;2.30;;;0.80;;
60239;SDS011;46102;39.012;-7.064;2024-03-07T09:25:21;3.53;;;0.77;;
60239;SDS011;46102;39.012;-7.064;2024-03-07T09:27:23;0.60;;;0.60;;
60239;SDS011;46102;39.012;-7.064;2024-03-07T09:29:24;1.27;;;0.73;;
60239;SDS011;46102;39.012;-7.064;2024-03-07T09:31:25;4.20;;;0.88;;
60239;SDS011;46102;39.012;-7.064;2024-03-07T09:33:26;3.28;;;1.00;;
60239;SDS011;46102;39.012;-7.064;2024-03-07T09:35:26;2.38;;;0.80;;
60239;SDS011;46102;39.012;-7.064;2024-03-07T09:37:27;2.17;;;0.50;;
60239;SDS011;46102;39.012;-7.064;2024-03-07T09:39:28;0.98;;;0.63;;
60239;SDS011;46102;39.012;-7.064;2024-03-07T09:41:32;0.40;;;0.38;;
60239;SDS011;46102;39.012;-7.064;2024-03-07T09:43:32;1.55;;;0.68;;
60239;SDS011;46102;39.012;-7.064;2024-03-07T09:45:34;1.95;;;0.47;;
60239;SDS011;46102;39.012;-7.064;2024-03-07T09:47:35;0.60;;;0.45;;
60239;SDS011;46102;39.012;-7.064;2024-03-07T09:49:36;1.17;;;0.50;;
60239;SDS011;46102;39.012;-7.064;2024-03-07T09:51:37;2.58;;;2.30;;
60239;SDS011;46102;39.012;-7.064;2024-03-07T09:53:38;1.98;;;1.88;;
60239;SDS011;46102;39.012;-7.064;2024-03-07T09:55:41;4.00;;;3.58;;
60239;SDS011;46102;39.012;-7.064;2024-03-07T09:57:42;3.38;;;2.63;;
60239;SDS011;46102;39.012;-7.064;2024-03-07T09:59:43;3.10;;;2.80;;
60239;SDS011;46102;39.012;-7.064;2024-03-07T10:01:47;2.13;;;1.20;;
60239;SDS011;46102;39.012;-7.064;2024-03-07T10:03:50;2.13;;;0.50;;
60239;SDS011;46102;39.012;-7.064;2024-03-07T10:05:56;0.30;;;0.30;;
60239;SDS011;46102;39.012;-7.064;2024-03-07T10:07:57;0.52;;;0.20;;
60239;SDS011;46102;39.012;-7.064;2024-03-07T10:09:59;0.30;;;0.30;;
60239;SDS011;46102;39.012;-7.064;2024-03-07T10:12:00;0.50;;;0.50;;
60239;SDS011;46102;39.012;-7.064;2024-03-07T10:14:02;0.40;;;0.40;;
60239;SDS011;46102;39.012;-7.064;2024-03-07T10:16:05;0.45;;;0.30;;
60239;SDS011;46102;39.012;-7.064;2024-03-07T10:18:07;0.10;;;0.10;;
60239;SDS011;46102;39.012;-7.064;2024-03-07T10:20:11;0.57;;;0.30;;
60239;SDS011;46102;39.012;-7.064;2024-03-07T10:22:14;0.40;;;0.40;;
60239;SDS011;46102;39.012;-7.064;2024-03-07T10:24:15;0.35;;;0.35;;
60239;SDS011;46102;39.012;-7.064;2024-03-07T10:26:16;0.30;;;0.30;;
60239;SDS011;46102;39.012;-7.064;2024-03-07T10:28:17;0.30;;;0.20;;
60239;SDS011;46102;39.012;-7.064;2024-03-07T10:30:18;0.30;;;0.30;;
60239;SDS011;46102;39.012;-7.064;2024-03-07T10:32:22;0.20;;;0.20;;
60239;SDS011;46102;39.012;-7.064;2024-03-07T10:34:23;1.42;;;0.40;;
60239;SDS011;46102;39.012;-7.064;2024-03-07T10:36:25;0.68;;;0.40;;
60239;SDS011;46102;39.012;-7.064;2024-03-07T10:38:26;1.00;;;0.60;;
60239;SDS011;46102;39.012;-7.064;2024-03-07T10:40:27;1.40;;;0.30;;
60239;SDS011;46102;39.012;-7.064;2024-03-07T10:42:28;2.53;;;0.30;;
60239;SDS011;46102;39.012;-7.064;2024-03-07T10:44:30;3.50;;;0.95;;
60239;SDS011;46102;39.012;-7.064;2024-03-07T10:46:32;0.63;;;0.50;;
60239;SDS011;46102;39.012;-7.064;2024-03-07T10:48:38;1.60;;;0.55;;
60239;SDS011;46102;39.012;-7.064;2024-03-07T10:53:03;5.40;;;0.60;;
60239;SDS011;46102;39.012;-7.064;2024-03-07T10:59:47;1.05;;;0.50;;
60239;SDS011;46102;39.012;-7.064;2024-03-07T11:02:05;0.50;;;0.30;;
60239;SDS011;46102;39.012;-7.064;2024-03-07T11:04:30;5.32;;;0.38;;
60239;SDS011;46102;39.012;-7.064;2024-03-07T11:06:32;0.30;;;0.30;;
60239;SDS011;46102;39.012;-7.064;2024-03-07T11:08:37;0.80;;;0.40;;
60239;SDS011;46102;39.012;-7.064;2024-03-07T11:10:38;3.88;;;0.30;;
60239;SDS011;46102;39.012;-7.064;2024-03-07T11:12:39;1.10;;;0.25;;
60239;SDS011;46102;39.012;-7.064;2024-03-07T11:14:42;0.52;;;0.20;;
60239;SDS011;46102;39.012;-7.064;2024-03-07T11:16:44;2.65;;;0.50;;
60239;SDS011;46102;39.012;-7.064;2024-03-07T11:21:42;2.08;;;0.60;;
60239;SDS011;46102;39.012;-7.064;2024-03-07T11:23:46;1.77;;;0.70;;
60239;SDS011;46102;39.012;-7.064;2024-03-07T11:25:47;1.25;;;0.40;;
60239;SDS011;46102;39.012;-7.064;2024-03-07T11:27:52;2.40;;;0.60;;
60239;SDS011;46102;39.012;-7.064;2024-03-07T11:30:06;1.95;;;0.55;;
60239;SDS011;46102;39.012;-7.064;2024-03-07T11:32:09;3.08;;;0.63;;
60239;SDS011;46102;39.012;-7.064;2024-03-07T11:34:12;7.32;;;0.47;;
60239;SDS011;46102;39.012;-7.064;2024-03-07T11:36:12;2.60;;;0.30;;
60239;SDS011;46102;39.012;-7.064;2024-03-07T11:38:49;3.95;;;0.70;;
60239;SDS011;46102;39.012;-7.064;2024-03-07T11:40:50;3.45;;;0.43;;
60239;SDS011;46102;39.012;-7.064;2024-03-07T11:42:52;0.57;;;0.30;;
60239;SDS011;46102;39.012;-7.064;2024-03-07T11:44:54;2.60;;;0.47;;
60239;SDS011;46102;39.012;-7.064;2024-03-07T11:46:58;1.60;;;0.40;;
60239;SDS011;46102;39.012;-7.064;2024-03-07T11:48:59;1.92;;;0.70;;
60239;SDS011;46102;39.012;-7.064;2024-03-07T11:51:01;2.95;;;0.50;;
60239;SDS011;46102;39.012;-7.064;2024-03-07T11:53:03;3.40;;;0.50;;
60239;SDS011;46102;39.012;-7.064;2024-03-07T11:55:08;2.60;;;0.35;;
60239;SDS011;46102;39.012;-7.064;2024-03-07T11:57:09;2.97;;;0.70;;
60239;SDS011;46102;39.012;-7.064;2024-03-07T11:59:13;2.13;;;0.50;;
60239;SDS011;46102;39.012;-7.064;2024-03-07T12:01:14;4.65;;;0.35;;
60239;SDS011;46102;39.012;-7.064;2024-03-07T12:03:17;2.45;;;0.65;;
60239;SDS011;46102;39.012;-7.064;2024-03-07T12:05:23;2.00;;;0.28;;
60239;SDS011;46102;39.012;-7.064;2024-03-07T12:07:27;2.80;;;0.55;;
60239;SDS011;46102;39.012;-7.064;2024-03-07T12:09:28;5.38;;;0.63;;
60239;SDS011;46102;39.012;-7.064;2024-03-07T12:11:29;2.47;;;0.77;;